Time;durP1;ratioP1;P1;durP2;ratioP2;P2;SDS_P1;SDS_P2;PMS_P1;PMS_P2;Temp;Humidity;BMP_temperature;BMP_pressure;BME280_temperature;BME280_humidity;BME280_pressure;Samples;Min_cycle;Max_cycle;Signal;HPM_P1;HPM_P2
2022/04/06 00:00:43;;;;;;;2.85;1.65;;;;;;;7.24;nan;100103.88;5002017;28;20071;-47
2022/04/06 00:03:09;;;;;;;3.08;1.77;;;;;;;7.23;nan;100101.47;5001458;28;20026;-47
2022/04/06 00:05:35;;;;;;;2.35;1.88;;;;;;;7.21;nan;100099.06;4996610;28;20029;-47
2022/04/06 00:08:01;;;;;;;4.93;2.00;;;;;;;7.21;nan;100098.25;4996863;28;20030;-47
2022/04/06 00:10:28;;;;;;;3.55;2.03;;;;;;;7.23;nan;100101.47;5004029;28;20113;-47
2022/04/06 00:12:54;;;;;;;5.10;1.58;;;;;;;7.22;nan;100105.19;4999319;28;20492;-47
2022/04/06 00:15:20;;;;;;;2.53;1.52;;;;;;;7.23;nan;100096.94;4999355;28;20498;-48
2022/04/06 00:17:46;;;;;;;2.40;1.67;;;;;;;7.22;nan;100094.53;4998509;28;20307;-47
2022/04/06 00:20:12;;;;;;;3.28;1.92;;;;;;;7.23;nan;100096.94;5000723;28;20384;-47
2022/04/06 00:22:40;;;;;;;3.35;1.70;;;;;;;7.24;nan;100092.44;5001898;28;20430;-47
2022/04/06 00:25:06;;;;;;;2.53;1.45;;;;;;;7.24;nan;100087.91;4998708;28;20026;-47
2022/04/06 00:27:31;;;;;;;3.70;1.67;;;;;;;7.26;nan;100090.31;4997145;28;20088;-47
2022/04/06 00:29:57;;;;;;;2.88;1.40;;;;;;;7.27;nan;100086.59;4997722;28;20029;-47
2022/04/06 00:32:23;;;;;;;2.13;1.25;;;;;;;7.23;nan;100096.16;4998159;28;20058;-48
2022/04/06 00:37:33;;;;;;;2.53;1.60;;;;;;;7.18;nan;100096.03;5002780;28;20100;-47
2022/04/06 00:39:59;;;;;;;3.80;1.38;;;;;;;7.17;nan;100092.56;5004289;28;20450;-47
2022/04/06 00:42:25;;;;;;;2.13;1.42;;;;;;;7.15;nan;100092.00;5003142;28;20105;-48
2022/04/06 00:44:51;;;;;;;3.10;1.75;;;;;;;7.13;nan;100088.78;5000511;28;20105;-47
2022/04/06 00:47:16;;;;;;;2.22;1.50;;;;;;;7.14;nan;100086.91;5003555;28;20022;-47
2022/04/06 00:49:42;;;;;;;2.75;1.50;;;;;;;7.15;nan;100085.88;5003238;28;20034;-47
2022/04/06 00:52:08;;;;;;;3.15;1.67;;;;;;;7.17;nan;100083.75;5001442;28;20130;-47
2022/04/06 00:54:35;;;;;;;2.38;1.73;;;;;;;7.17;nan;100081.09;4996324;28;20101;-47
2022/04/06 00:57:01;;;;;;;1.77;1.20;;;;;;;7.18;nan;100072.91;5000643;28;20034;-47
2022/04/06 00:59:29;;;;;;;1.58;1.30;;;;;;;7.17;nan;100076.59;5002049;28;20026;-47
2022/04/06 01:01:55;;;;;;;1.95;1.20;;;;;;;7.19;nan;100065.72;5006604;28;20049;-47
2022/04/06 01:04:21;;;;;;;2.35;1.42;;;;;;;7.20;nan;100065.47;5002211;28;20491;-47
2022/04/06 01:06:51;;;;;;;2.17;1.38;;;;;;;7.19;nan;100063.03;5000781;28;20266;-47
2022/04/06 01:09:18;;;;;;;2.38;1.60;;;;;;;7.20;nan;100057.47;5002665;28;20028;-47
2022/04/06 01:11:45;;;;;;;2.10;1.80;;;;;;;7.20;nan;100049.47;5005106;28;20196;-47
2022/04/06 01:14:12;;;;;;;2.75;1.60;;;;;;;7.19;nan;100052.38;5002442;28;20105;-47
2022/04/06 01:16:39;;;;;;;1.70;1.48;;;;;;;7.16;nan;100043.00;5001107;28;20026;-47
2022/04/06 01:19:04;;;;;;;3.28;1.80;;;;;;;7.17;nan;100043.81;5001426;28;20448;-47
2022/04/06 01:21:30;;;;;;;2.15;1.50;;;;;;;7.18;nan;100040.09;5006031;28;20191;-48
2022/04/06 01:23:56;;;;;;;2.70;1.70;;;;;;;7.17;nan;100041.13;5000432;28;20030;-49
2022/04/06 01:26:22;;;;;;;2.75;1.55;;;;;;;7.16;nan;100037.66;4998414;28;20392;-48
2022/04/06 01:28:48;;;;;;;2.83;1.73;;;;;;;7.15;nan;100036.06;5002828;28;20029;-47
2022/04/06 01:31:15;;;;;;;2.00;1.30;;;;;;;7.16;nan;100036.88;5002914;28;20033;-47
2022/04/06 01:33:41;;;;;;;1.77;1.40;;;;;;;7.16;nan;100039.53;5001710;28;20026;-48
2022/04/06 01:36:06;;;;;;;2.55;1.58;;;;;;;7.16;nan;100037.66;5003416;28;20474;-47
2022/04/06 01:38:32;;;;;;;2.90;1.63;;;;;;;7.17;nan;100039.28;5005182;28;20037;-47
2022/04/06 01:40:58;;;;;;;1.88;1.30;;;;;;;7.18;nan;100042.75;4998958;28;20033;-47
2022/04/06 01:43:24;;;;;;;1.90;1.27;;;;;;;7.17;nan;100036.63;5005060;28;20022;-48
2022/04/06 01:45:49;;;;;;;2.60;1.88;;;;;;;7.17;nan;100033.16;5000167;28;20140;-49
2022/04/06 01:48:15;;;;;;;2.25;1.45;;;;;;;7.17;nan;100038.47;5005700;28;20033;-47
2022/04/06 01:53:27;;;;;;;3.33;1.88;;;;;;;7.11;nan;100028.81;5003891;28;20108;-47
2022/04/06 01:55:54;;;;;;;3.30;1.90;;;;;;;7.09;nan;100023.72;5000950;28;20108;-47
2022/04/06 01:58:20;;;;;;;3.50;2.03;;;;;;;7.06;nan;100020.75;5005986;28;20068;-47
2022/04/06 02:00:46;;;;;;;4.20;2.00;;;;;;;7.04;nan;100022.84;5004156;28;20463;-48
2022/04/06 02:03:11;;;;;;;2.50;1.80;;;;;;;7.01;nan;100018.81;5005083;28;20072;-47
2022/04/06 02:05:37;;;;;;;2.92;2.00;;;;;;;7.01;nan;100013.47;5003371;28;20021;-47
2022/04/06 02:08:03;;;;;;;2.40;1.52;;;;;;;7.02;nan;100008.97;5004695;28;20540;-47
2022/04/06 02:10:28;;;;;;;3.17;1.92;;;;;;;7.02;nan;100011.63;5000379;28;20064;-48
2022/04/06 02:12:57;;;;;;;2.63;1.92;;;;;;;7.04;nan;100009.53;5002128;28;20050;-47
2022/04/06 02:15:23;;;;;;;1.80;1.60;;;;;;;7.04;nan;100012.19;5002937;28;20554;-49
2022/04/06 02:17:49;;;;;;;2.83;1.70;;;;;;;7.03;nan;100014.03;5002530;28;20321;-47
2022/04/06 02:20:15;;;;;;;5.75;2.10;;;;;;;7.02;nan;100004.44;5005087;28;20049;-47
2022/04/06 02:22:42;;;;;;;2.67;1.85;;;;;;;7.00;nan;100011.03;4995395;28;20115;-47
2022/04/06 02:25:09;;;;;;;3.17;1.85;;;;;;;6.96;nan;100005.38;5004474;28;20022;-48
2022/04/06 02:27:51;;;;;;;5.10;2.05;;;;;;;6.90;nan;100006.38;5003352;28;20435;-48
2022/04/06 02:30:18;;;;;;;3.17;1.80;;;;;;;6.92;nan;99998.94;5001088;28;20038;-47
2022/04/06 02:32:44;;;;;;;4.95;1.83;;;;;;;6.91;nan;99998.13;5002018;28;20049;-47
2022/04/06 02:35:11;;;;;;;4.28;2.75;;;;;;;6.92;nan;99997.09;5005052;28;20080;-47
2022/04/06 02:37:37;;;;;;;3.33;1.70;;;;;;;6.94;nan;99994.19;5005205;28;20463;-47
2022/04/06 02:40:04;;;;;;;2.72;1.83;;;;;;;6.95;nan;99991.25;5002802;28;20032;-47
2022/04/06 02:42:30;;;;;;;2.53;1.70;;;;;;;6.95;nan;99987.78;5002451;28;20022;-47
2022/04/06 02:44:56;;;;;;;3.88;1.98;;;;;;;6.93;nan;99979.25;5002832;28;20559;-47
2022/04/06 02:47:21;;;;;;;2.58;1.67;;;;;;;6.91;nan;99987.47;4998571;28;20026;-47
2022/04/06 02:49:47;;;;;;;4.50;2.40;;;;;;;6.91;nan;99978.69;4999947;28;20549;-47
2022/04/06 02:52:12;;;;;;;2.88;2.03;;;;;;;6.90;nan;99980.53;5001662;28;20117;-48
2022/04/06 02:54:38;;;;;;;2.97;1.98;;;;;;;6.91;nan;99968.03;4998470;28;20026;-47
2022/04/06 02:57:04;;;;;;;3.45;2.03;;;;;;;6.90;nan;99964.56;5008972;28;20170;-47
2022/04/06 02:59:29;;;;;;;3.20;2.45;;;;;;;6.91;nan;99966.19;5004462;28;20057;-48
2022/04/06 03:01:55;;;;;;;3.13;1.98;;;;;;;6.91;nan;99960.84;5001911;28;20030;-47
2022/04/06 03:04:20;;;;;;;3.67;2.05;;;;;;;6.91;nan;99958.19;5000263;28;20033;-47
2022/04/06 03:06:46;;;;;;;2.58;1.80;;;;;;;6.90;nan;99953.91;5003897;28;20113;-48
2022/04/06 03:09:11;;;;;;;2.80;1.80;;;;;;;6.90;nan;99953.91;5003304;28;20022;-47
2022/04/06 03:11:37;;;;;;;3.03;2.20;;;;;;;6.90;nan;99955.78;4997707;28;20499;-47
2022/04/06 03:14:03;;;;;;;4.60;2.10;;;;;;;6.88;nan;99956.00;5001482;28;20022;-48
2022/04/06 03:16:28;;;;;;;2.97;1.95;;;;;;;6.86;nan;99952.00;4998486;28;20114;-48
2022/04/06 03:18:54;;;;;;;2.60;1.67;;;;;;;6.84;nan;99954.09;5001080;28;20164;-48
2022/04/06 03:21:19;;;;;;;2.88;1.85;;;;;;;6.80;nan;99945.75;5002209;28;20029;-48
2022/04/06 03:23:45;;;;;;;3.50;1.58;;;;;;;6.82;nan;99945.50;4997647;28;20196;-48
2022/04/06 03:26:11;;;;;;;2.22;1.70;;;;;;;6.82;nan;99948.16;4999489;28;20034;-47
2022/04/06 03:28:38;;;;;;;4.20;1.80;;;;;;;6.80;nan;99945.75;5001645;28;20116;-47
2022/04/06 03:31:05;;;;;;;4.40;1.88;;;;;;;6.77;nan;99943.59;4998614;28;20026;-47
2022/04/06 03:33:31;;;;;;;2.22;1.48;;;;;;;6.77;nan;99942.78;5052586;22;20072;-49
2022/04/06 03:35:56;;;;;;;3.45;1.70;;;;;;;6.77;nan;99934.78;5010255;28;20038;-48
2022/04/06 03:38:22;;;;;;;2.25;1.50;;;;;;;6.76;nan;99936.66;5000400;28;20041;-48
2022/04/06 03:40:48;;;;;;;3.70;1.67;;;;;;;6.76;nan;99933.19;4986267;28;20026;-48
2022/04/06 03:43:14;;;;;;;2.47;1.60;;;;;;;6.73;nan;99931.81;4977038;28;20025;-48
2022/04/06 03:45:40;;;;;;;2.70;1.80;;;;;;;6.72;nan;99929.41;5003302;23;20204;-45
2022/04/06 03:48:06;;;;;;;2.95;1.95;;;;;;;6.73;nan;99928.34;5002895;28;20471;-43
2022/04/06 03:50:31;;;;;;;2.88;1.42;;;;;;;6.73;nan;99921.16;5005825;28;20029;-43
2022/04/06 03:52:57;;;;;;;4.38;1.60;;;;;;;6.73;nan;99925.69;5004913;28;20034;-43
2022/04/06 03:55:22;;;;;;;4.32;2.00;;;;;;;6.75;nan;99921.72;5003414;28;20022;-43
2022/04/06 03:57:48;;;;;;;2.47;1.20;;;;;;;6.76;nan;99923.34;4982988;28;20593;-43
2022/04/06 04:00:14;;;;;;;2.28;1.75;;;;;;;6.77;nan;99929.47;4986165;28;20101;-43
2022/04/06 04:02:40;;;;;;;3.88;1.90;;;;;;;6.76;nan;99918.00;4984583;28;20041;-43
2022/04/06 04:05:06;;;;;;;2.53;1.55;;;;;;;6.77;nan;99918.81;4985626;28;20096;-43
2022/04/06 04:07:37;;;;;;;3.05;1.80;;;;;;;6.77;nan;99927.59;4983041;28;20088;-44
2022/04/06 04:10:05;;;;;;;2.85;1.58;;;;;;;6.78;nan;99929.22;4986776;28;20026;-44
2022/04/06 04:12:30;;;;;;;3.47;1.88;;;;;;;6.77;nan;99924.94;4980392;28;20085;-43
2022/04/06 04:14:56;;;;;;;4.38;1.85;;;;;;;6.78;nan;99923.91;4986326;28;20034;-43
2022/04/06 04:17:21;;;;;;;3.90;2.33;;;;;;;6.79;nan;99912.19;4985670;28;20049;-44
2022/04/06 04:19:47;;;;;;;3.10;1.80;;;;;;;6.79;nan;99916.72;4987781;28;20026;-43
2022/04/06 04:22:13;;;;;;;3.85;2.30;;;;;;;6.80;nan;99918.31;4985450;28;20483;-43
2022/04/06 04:24:38;;;;;;;4.63;1.92;;;;;;;6.81;nan;99911.94;4985001;28;20053;-44
2022/04/06 04:27:04;;;;;;;3.60;2.35;;;;;;;6.82;nan;99916.22;4987477;28;20034;-44
2022/04/06 04:29:29;;;;;;;4.28;1.90;;;;;;;6.84;nan;99917.63;4984887;28;20120;-43
2022/04/06 04:31:55;;;;;;;3.83;2.00;;;;;;;6.84;nan;99916.81;4985563;28;20026;-43
2022/04/06 04:34:20;;;;;;;3.55;2.17;;;;;;;6.85;nan;99921.88;4981802;28;20050;-43
2022/04/06 04:36:46;;;;;;;3.40;2.45;;;;;;;6.85;nan;99919.22;4990151;28;20037;-43
2022/04/06 04:39:11;;;;;;;3.22;1.83;;;;;;;6.86;nan;99915.50;4988606;28;20022;-44
2022/04/06 04:41:37;;;;;;;3.63;2.28;;;;;;;6.86;nan;99920.84;4984433;28;20022;-43
2022/04/06 04:44:03;;;;;;;4.28;2.60;;;;;;;6.88;nan;99915.28;4986560;28;20061;-44
2022/04/06 04:46:29;;;;;;;5.22;3.03;;;;;;;6.88;nan;99918.72;4991955;28;20065;-44
2022/04/06 04:48:54;;;;;;;4.75;3.13;;;;;;;6.87;nan;99921.66;4993042;28;20596;-43
2022/04/06 04:51:20;;;;;;;6.90;3.33;;;;;;;6.87;nan;99917.13;4989705;28;20030;-43
2022/04/06 04:53:45;;;;;;;4.57;3.33;;;;;;;6.87;nan;99916.31;4989739;28;20080;-43
2022/04/06 04:56:11;;;;;;;6.57;3.63;;;;;;;6.87;nan;99913.66;4988668;28;20030;-43
2022/04/06 04:58:36;;;;;;;7.28;4.05;;;;;;;6.86;nan;99918.19;4984129;28;20496;-43
2022/04/06 05:01:02;;;;;;;7.75;4.07;;;;;;;6.86;nan;99918.19;4989552;28;20026;-43
2022/04/06 05:03:28;;;;;;;7.43;4.18;;;;;;;6.86;nan;99915.50;4990026;28;20022;-43
2022/04/06 05:05:56;;;;;;;8.90;4.50;;;;;;;6.87;nan;99916.31;4984549;28;20042;-42
2022/04/06 05:08:22;;;;;;;7.50;4.80;;;;;;;6.88;nan;99913.41;4986007;28;20110;-43
2022/04/06 05:10:48;;;;;;;8.73;5.05;;;;;;;6.90;nan;99915.81;4986544;28;20022;-46
2022/04/06 05:13:14;;;;;;;9.73;5.10;;;;;;;6.90;nan;99916.63;4984747;28;20092;-44
2022/04/06 05:15:40;;;;;;;8.80;4.82;;;;;;;6.93;nan;99916.13;4985816;28;20030;-44
2022/04/06 05:18:06;;;;;;;8.73;4.90;;;;;;;6.96;nan;99917.50;4986651;28;20026;-43
2022/04/06 05:20:32;;;;;;;9.38;5.53;;;;;;;7.00;nan;99920.47;4984875;28;20026;-45
2022/04/06 05:22:58;;;;;;;11.50;6.43;;;;;;;7.04;nan;99918.97;4989560;28;20327;-45
2022/04/06 05:25:24;;;;;;;12.55;7.05;;;;;;;7.09;nan;99921.69;4989053;28;20058;-44
2022/04/06 05:27:52;;;;;;;12.55;6.97;;;;;;;7.13;nan;99906.81;4988835;28;20113;-43
2022/04/06 05:30:19;;;;;;;13.57;8.15;;;;;;;7.19;nan;99911.19;4988642;28;20034;-44
2022/04/06 05:32:48;;;;;;;15.43;8.45;;;;;;;7.24;nan;99917.38;4991772;28;20986;-44
2022/04/06 05:35:13;;;;;;;13.98;7.68;;;;;;;7.29;nan;99921.97;4987377;28;20065;-43
2022/04/06 05:37:40;;;;;;;18.25;8.70;;;;;;;7.33;nan;99923.06;4988241;28;20065;-43
2022/04/06 05:40:07;;;;;;;14.05;7.82;;;;;;;7.40;nan;99925.59;4991962;28;20113;-43
2022/04/06 05:42:33;;;;;;;14.68;8.00;;;;;;;7.44;nan;99924.84;4982040;28;20026;-43
2022/04/06 05:44:59;;;;;;;15.55;8.25;;;;;;;7.50;nan;99931.81;4987735;28;20027;-44
2022/04/06 05:47:25;;;;;;;20.05;10.07;;;;;;;7.53;nan;99931.31;4990548;28;20062;-44
2022/04/06 05:49:50;;;;;;;18.20;9.23;;;;;;;7.64;nan;99934.13;4989464;28;20053;-43
2022/04/06 05:52:16;;;;;;;15.80;9.10;;;;;;;7.69;nan;99929.66;4987666;28;20034;-44
2022/04/06 05:54:41;;;;;;;14.93;8.77;;;;;;;7.74;nan;99932.41;4992331;28;20027;-43
2022/04/06 05:57:07;;;;;;;14.90;8.57;;;;;;;7.80;nan;99935.94;4985117;28;20022;-43
2022/04/06 05:59:33;;;;;;;15.68;8.32;;;;;;;7.82;nan;99937.28;4991642;28;20026;-44
2022/04/06 06:01:58;;;;;;;14.25;8.63;;;;;;;7.89;nan;99939.75;4991103;28;20470;-44
2022/04/06 06:04:24;;;;;;;12.80;7.63;;;;;;;7.95;nan;99948.63;4989405;28;20030;-44
2022/04/06 06:06:49;;;;;;;15.27;7.68;;;;;;;8.01;nan;99943.09;4985700;28;20022;-44
2022/04/06 06:09:15;;;;;;;15.27;8.48;;;;;;;8.07;nan;99942.09;4989314;28;20044;-44
2022/04/06 06:11:41;;;;;;;15.73;8.10;;;;;;;8.13;nan;99950.97;4987508;28;20076;-43
2022/04/06 06:14:08;;;;;;;14.73;7.97;;;;;;;8.18;nan;99954.47;4988420;28;20026;-44
2022/04/06 06:16:34;;;;;;;12.88;7.50;;;;;;;8.26;nan;99950.56;4987977;28;20041;-44
2022/04/06 06:19:00;;;;;;;13.35;8.00;;;;;;;8.32;nan;99951.41;4988164;28;20437;-44
2022/04/06 06:21:27;;;;;;;13.25;7.43;;;;;;;8.38;nan;99958.44;4990308;28;20030;-44
2022/04/06 06:23:55;;;;;;;13.80;7.47;;;;;;;8.41;nan;99952.59;4990400;28;20080;-44
2022/04/06 06:26:21;;;;;;;10.63;6.50;;;;;;;8.43;nan;99950.47;4984819;28;20467;-43
2022/04/06 06:28:46;;;;;;;12.23;7.47;;;;;;;8.47;nan;99954.28;4988638;28;20026;-44
2022/04/06 06:31:12;;;;;;;13.68;6.68;;;;;;;8.49;nan;99960.16;4987854;28;20052;-44
2022/04/06 06:33:37;;;;;;;12.23;7.10;;;;;;;8.53;nan;99952.44;4989512;28;20044;-44
2022/04/06 06:36:03;;;;;;;11.38;6.63;;;;;;;8.57;nan;99958.88;4991229;28;20030;-44
2022/04/06 06:38:29;;;;;;;12.02;7.25;;;;;;;8.60;nan;99945.81;4990215;28;20483;-44
2022/04/06 06:40:54;;;;;;;12.55;6.72;;;;;;;8.64;nan;99951.47;4988045;28;20084;-44
2022/04/06 06:43:20;;;;;;;11.15;6.60;;;;;;;8.67;nan;99962.44;4970352;28;20018;-44
2022/04/06 06:45:46;;;;;;;13.30;6.60;;;;;;;8.69;nan;99949.66;4987369;28;20506;-45
2022/04/06 06:48:11;;;;;;;14.15;7.07;;;;;;;8.72;nan;99949.13;4984224;28;20419;-46
2022/04/06 06:50:37;;;;;;;9.93;6.35;;;;;;;8.76;nan;99949.41;4985039;28;20027;-44
2022/04/06 06:53:02;;;;;;;15.82;7.57;;;;;;;8.79;nan;99947.03;4988888;28;20030;-43
2022/04/06 06:55:28;;;;;;;11.93;6.43;;;;;;;8.84;nan;99953.50;4985597;28;20496;-44
2022/04/06 06:57:54;;;;;;;12.85;6.80;;;;;;;8.84;nan;99956.19;4990780;28;20104;-44
2022/04/06 07:00:19;;;;;;;12.13;7.00;;;;;;;8.84;nan;99951.63;4989118;28;20266;-44
2022/04/06 07:02:45;;;;;;;12.65;7.43;;;;;;;8.88;nan;99960.75;4988306;28;20835;-44
2022/04/06 07:05:11;;;;;;;13.75;7.22;;;;;;;8.92;nan;99967.19;4986556;28;20081;-44
2022/04/06 07:07:57;;;;;;;15.73;8.30;;;;;;;8.93;nan;99955.44;4983582;28;20031;-44
2022/04/06 07:10:24;;;;;;;12.68;7.40;;;;;;;9.00;nan;99960.56;4986449;28;20029;-46
2022/04/06 07:12:50;;;;;;;14.63;7.55;;;;;;;9.04;nan;99961.66;4985456;28;20026;-44
2022/04/06 07:15:16;;;;;;;15.57;7.72;;;;;;;9.10;nan;99965.97;4989830;28;20550;-46
2022/04/06 07:17:42;;;;;;;14.20;7.70;;;;;;;9.15;nan;99962.53;4988040;28;20026;-44
2022/04/06 07:20:09;;;;;;;15.82;8.20;;;;;;;9.19;nan;99964.44;4979133;28;20030;-44
2022/04/06 07:22:35;;;;;;;18.40;8.18;;;;;;;9.25;nan;99967.94;4989979;28;20039;-44
2022/04/06 07:25:01;;;;;;;16.98;8.23;;;;;;;9.29;nan;99958.34;4984530;28;20026;-45
2022/04/06 07:27:32;;;;;;;16.10;8.77;;;;;;;9.36;nan;99954.38;4984563;28;20030;-44
2022/04/06 07:29:57;;;;;;;14.77;8.05;;;;;;;9.39;nan;99953.88;4988852;28;20049;-43
2022/04/06 07:32:23;;;;;;;15.32;7.93;;;;;;;9.45;nan;99948.53;4985854;28;20372;-44
2022/04/06 07:34:48;;;;;;;15.02;9.80;;;;;;;9.48;nan;99950.69;4986247;28;20111;-46
2022/04/06 07:37:14;;;;;;;14.65;8.63;;;;;;;9.52;nan;99946.44;4986768;28;20105;-45
2022/04/06 07:39:39;;;;;;;15.10;7.60;;;;;;;9.55;nan;99956.63;4989341;28;20066;-44
2022/04/06 07:42:05;;;;;;;12.80;7.38;;;;;;;9.60;nan;99944.06;4985675;28;20165;-44
2022/04/06 07:44:31;;;;;;;13.90;7.38;;;;;;;9.63;nan;99948.91;4988018;28;20057;-44
2022/04/06 07:46:56;;;;;;;13.75;8.18;;;;;;;9.67;nan;99949.16;4987616;28;20034;-44
2022/04/06 07:49:22;;;;;;;16.42;8.65;;;;;;;9.66;nan;99951.03;4989054;28;20042;-44
2022/04/06 07:51:48;;;;;;;13.07;8.48;;;;;;;9.70;nan;99948.66;4988108;28;20720;-44
2022/04/06 07:54:13;;;;;;;16.58;8.95;;;;;;;9.76;nan;99946.81;4985744;28;20096;-44
2022/04/06 07:56:40;;;;;;;16.70;9.45;;;;;;;9.79;nan;99949.75;4987603;28;20472;-45
2022/04/06 07:59:06;;;;;;;15.50;8.13;;;;;;;9.83;nan;99958.88;4985085;28;20082;-45
2022/04/06 08:01:31;;;;;;;20.25;8.93;;;;;;;9.88;nan;99950.88;4986646;28;20507;-45
2022/04/06 08:03:57;;;;;;;17.08;8.63;;;;;;;9.91;nan;99945.00;4980355;28;20033;-44
2022/04/06 08:06:24;;;;;;;16.80;9.20;;;;;;;9.92;nan;99951.97;4967906;28;20034;-44
2022/04/06 08:08:53;;;;;;;16.83;8.85;;;;;;;9.96;nan;99952.22;4978954;28;20038;-45
2022/04/06 08:11:22;;;;;;;17.00;9.60;;;;;;;9.92;nan;99945.81;4983086;28;20109;-44
2022/04/06 08:13:48;;;;;;;19.52;9.88;;;;;;;9.90;nan;99947.94;4985489;28;20026;-44
2022/04/06 08:16:14;;;;;;;18.48;9.68;;;;;;;9.90;nan;99954.09;4984566;28;20298;-44
2022/04/06 08:18:40;;;;;;;24.35;11.30;;;;;;;9.90;nan;99951.41;4983574;28;20054;-45
2022/04/06 08:21:08;;;;;;;19.67;11.30;;;;;;;9.89;nan;99949.81;4981680;28;20477;-45
2022/04/06 08:23:36;;;;;;;16.48;10.82;;;;;;;9.87;nan;99946.56;4984804;28;20449;-45
2022/04/06 08:26:02;;;;;;;20.08;11.25;;;;;;;9.87;nan;99951.91;4978921;28;20034;-45
2022/04/06 08:28:28;;;;;;;21.15;12.27;;;;;;;9.89;nan;99955.16;4983924;28;20037;-44
2022/04/06 08:30:53;;;;;;;17.75;11.35;;;;;;;9.89;nan;99957.84;4987646;28;20118;-44
2022/04/06 08:33:19;;;;;;;20.15;11.73;;;;;;;9.89;nan;99957.03;4976934;28;20387;-44
2022/04/06 08:36:09;;;;;;;19.77;11.43;;;;;;;9.84;nan;99957.81;4984638;28;20042;-46
2022/04/06 08:38:35;;;;;;;21.38;11.90;;;;;;;9.89;nan;99957.84;4983048;28;20127;-46
2022/04/06 08:41:00;;;;;;;17.92;10.68;;;;;;;9.91;nan;99955.69;4985136;28;20149;-45
2022/04/06 08:43:28;;;;;;;23.38;11.82;;;;;;;9.93;nan;99958.91;4985088;28;20629;-44
2022/04/06 08:45:54;;;;;;;22.30;12.20;;;;;;;9.93;nan;99952.75;4983404;28;20186;-47
2022/04/06 08:48:21;;;;;;;21.05;11.38;;;;;;;9.94;nan;99955.16;4987831;28;20353;-44
2022/04/06 08:50:48;;;;;;;21.38;13.43;;;;;;;9.94;nan;99952.50;4986714;28;20044;-44
2022/04/06 08:53:14;;;;;;;20.73;12.25;;;;;;;9.97;nan;99953.84;4984773;28;20233;-45
2022/04/06 08:55:39;;;;;;;24.35;13.40;;;;;;;9.96;nan;99953.03;4984907;28;20121;-45
2022/04/06 08:58:05;;;;;;;21.75;11.88;;;;;;;9.96;nan;99953.03;4987510;28;20038;-45
2022/04/06 09:00:32;;;;;;;26.25;14.00;;;;;;;9.98;nan;99955.44;4982707;28;20029;-45
2022/04/06 09:02:58;;;;;;;25.92;13.07;;;;;;;10.00;nan;99954.09;4978549;28;20039;-45
2022/04/06 09:05:27;;;;;;;25.10;13.38;;;;;;;10.05;nan;99949.84;4982765;28;20031;-46
2022/04/06 09:07:53;;;;;;;23.10;13.18;;;;;;;10.09;nan;99945.59;4985625;28;20483;-47
2022/04/06 09:10:34;;;;;;;24.70;13.20;;;;;;;10.12;nan;99951.22;4985585;28;20041;-45
2022/04/06 09:13:10;;;;;;;25.50;14.18;;;;;;;10.18;nan;99954.69;4985558;28;20027;-45
2022/04/06 09:15:36;;;;;;;26.15;14.43;;;;;;;10.29;nan;99951.00;4981729;28;20030;-45
2022/04/06 09:18:02;;;;;;;25.10;14.45;;;;;;;10.33;nan;99952.09;4984620;28;20023;-45
2022/04/06 09:20:30;;;;;;;29.27;14.73;;;;;;;10.38;nan;99945.91;4978644;28;20157;-45
2022/04/06 09:22:55;;;;;;;26.15;14.77;;;;;;;10.40;nan;99941.91;4985887;28;20033;-45
2022/04/06 09:25:21;;;;;;;27.00;14.88;;;;;;;10.47;nan;99947.81;4992092;28;20026;-47
2022/04/06 09:27:47;;;;;;;24.65;14.77;;;;;;;10.55;nan;99933.88;4991478;28;20034;-44
2022/04/06 09:30:14;;;;;;;28.85;15.43;;;;;;;10.63;nan;99945.16;4991329;28;20026;-45
2022/04/06 09:32:41;;;;;;;30.63;14.88;;;;;;;10.71;nan;99931.22;4985452;28;20022;-45
2022/04/06 09:35:28;;;;;;;28.25;16.05;;;;;;;10.71;nan;99929.34;4987463;28;20138;-45
2022/04/06 09:38:11;;;;;;;28.73;16.58;;;;;;;10.77;nan;99924.75;4987455;28;20064;-46
2022/04/06 09:40:39;;;;;;;27.40;14.85;;;;;;;10.85;nan;99921.56;4988328;28;20046;-45
2022/04/06 09:43:07;;;;;;;31.25;13.98;;;;;;;10.91;nan;99915.09;4991156;28;20026;-46
2022/04/06 09:48:16;;;;;;;24.48;14.25;;;;;;;10.97;nan;99913.25;4991355;28;20541;-45
2022/04/06 09:50:54;;;;;;;26.13;14.57;;;;;;;10.99;nan;99919.94;4981369;28;20030;-45
2022/04/06 09:53:26;;;;;;;27.05;14.35;;;;;;;11.03;nan;99917.53;4989342;28;20030;-45
2022/04/06 09:55:54;;;;;;;29.00;13.77;;;;;;;11.03;nan;99920.19;4989125;28;20057;-44
2022/04/06 09:58:21;;;;;;;25.67;12.75;;;;;;;11.04;nan;99917.25;4986087;28;20450;-45
2022/04/06 10:00:48;;;;;;;25.10;12.10;;;;;;;11.07;nan;99916.69;4988316;28;20037;-45
2022/04/06 10:03:15;;;;;;;22.85;12.32;;;;;;;11.08;nan;99918.31;4988564;28;20439;-45
2022/04/06 10:05:44;;;;;;;20.83;11.77;;;;;;;11.10;nan;99912.66;4984959;28;20045;-45
2022/04/06 10:08:11;;;;;;;23.88;12.73;;;;;;;11.11;nan;99922.31;4984591;28;20149;-44
2022/04/06 10:10:41;;;;;;;23.42;11.48;;;;;;;11.11;nan;99911.59;4967670;28;20034;-45
2022/04/06 10:13:07;;;;;;;22.55;11.65;;;;;;;11.12;nan;99927.41;4989304;28;20187;-45
2022/04/06 10:15:35;;;;;;;21.08;11.55;;;;;;;11.15;nan;99915.34;4985574;28;20038;-45
2022/04/06 10:18:02;;;;;;;21.25;10.70;;;;;;;11.15;nan;99905.44;4988821;28;20062;-45
2022/04/06 10:20:33;;;;;;;21.27;12.23;;;;;;;11.16;nan;99915.09;4986588;28;20030;-45
2022/04/06 10:23:02;;;;;;;22.20;10.70;;;;;;;11.17;nan;99913.19;4986578;28;20435;-45
2022/04/06 10:25:38;;;;;;;19.63;10.50;;;;;;;11.15;nan;99910.78;4973487;28;20121;-45
2022/04/06 10:28:11;;;;;;;19.00;10.60;;;;;;;11.08;nan;99918.31;4985416;28;20303;-45
2022/04/06 10:30:36;;;;;;;18.13;9.45;;;;;;;11.08;nan;99917.50;4981346;28;20030;-46
2022/04/06 10:33:18;;;;;;;20.05;10.93;;;;;;;11.03;nan;99915.63;4987339;28;20057;-45
2022/04/06 10:35:43;;;;;;;19.83;9.20;;;;;;;11.10;nan;99908.09;4984768;28;20033;-44
2022/04/06 10:38:09;;;;;;;16.40;8.52;;;;;;;11.06;nan;99917.78;4984286;28;20031;-46
2022/04/06 10:40:43;;;;;;;14.02;8.30;;;;;;;11.01;nan;99916.97;4982086;28;20392;-45
2022/04/06 10:43:35;;;;;;;14.40;8.05;;;;;;;11.05;nan;99920.72;4984764;28;20396;-45
2022/04/06 10:46:01;;;;;;;18.75;8.77;;;;;;;11.11;nan;99912.38;4979216;28;20300;-45
2022/04/06 10:48:27;;;;;;;16.02;7.80;;;;;;;11.14;nan;99911.06;4982558;28;20444;-45
2022/04/06 10:50:53;;;;;;;17.02;8.05;;;;;;;11.17;nan;99911.31;4988203;28;20503;-44
2022/04/06 10:53:19;;;;;;;14.38;7.40;;;;;;;11.19;nan;99905.69;4976936;28;20036;-45
2022/04/06 10:56:03;;;;;;;14.95;8.10;;;;;;;11.17;nan;99908.66;4986659;28;20424;-44
2022/04/06 10:58:57;;;;;;;21.43;7.97;;;;;;;11.15;nan;99924.19;4983080;28;20141;-45
2022/04/06 11:01:29;;;;;;;15.95;7.72;;;;;;;11.22;nan;99917.75;4978873;28;20072;-45
2022/04/06 11:04:00;;;;;;;15.23;7.97;;;;;;;11.26;nan;99927.66;4987994;28;20030;-44
2022/04/06 11:06:41;;;;;;;16.13;7.80;;;;;;;11.22;nan;99905.13;4982113;28;20034;-47
2022/04/06 11:12:20;;;;;;;16.00;7.93;;;;;;;11.42;nan;99921.16;4987441;28;20124;-45
2022/04/06 11:14:50;;;;;;;15.93;8.02;;;;;;;11.52;nan;99912.28;4984417;28;20038;-45
2022/04/06 11:17:38;;;;;;;12.30;8.20;;;;;;;11.54;nan;99906.66;4988256;28;20570;-45
2022/04/06 11:20:11;;;;;;;14.85;8.98;;;;;;;11.53;nan;99921.13;4987626;28;20117;-44
2022/04/06 11:22:38;;;;;;;17.02;9.50;;;;;;;11.56;nan;99915.22;4982346;28;20109;-45
2022/04/06 11:25:15;;;;;;;13.32;8.23;;;;;;;11.53;nan;99908.53;4986356;28;20030;-45
2022/04/06 11:27:43;;;;;;;13.63;8.02;;;;;;;11.52;nan;99901.56;4987632;28;20034;-46
2022/04/06 11:30:15;;;;;;;14.30;8.40;;;;;;;11.51;nan;99902.63;4983110;28;20484;-45
2022/04/06 11:32:46;;;;;;;14.85;8.30;;;;;;;11.55;nan;99900.19;4982257;28;20410;-45
2022/04/06 11:35:13;;;;;;;14.35;7.90;;;;;;;11.56;nan;99899.13;4984930;28;20388;-45
2022/04/06 11:37:49;;;;;;;18.70;8.57;;;;;;;11.52;nan;99895.41;4987340;28;20117;-46
2022/04/06 11:40:20;;;;;;;13.52;8.63;;;;;;;11.58;nan;99894.28;4988622;28;20034;-45
2022/04/06 11:42:50;;;;;;;17.30;8.80;;;;;;;11.60;nan;99894.81;4987812;28;20227;-45
2022/04/06 11:45:27;;;;;;;15.65;8.18;;;;;;;11.57;nan;99896.16;4988565;28;20484;-45
2022/04/06 11:47:57;;;;;;;17.42;9.50;;;;;;;11.63;nan;99896.94;4990480;28;20054;-45
2022/04/06 11:50:30;;;;;;;14.80;8.73;;;;;;;11.62;nan;99898.81;4987627;28;20053;-45
2022/04/06 11:52:59;;;;;;;18.13;8.75;;;;;;;11.69;nan;99903.91;4983570;28;20027;-45
2022/04/06 11:55:48;;;;;;;17.38;9.05;;;;;;;11.66;nan;99905.22;4989296;28;20065;-45
2022/04/06 11:58:34;;;;;;;16.73;8.05;;;;;;;11.66;nan;99899.06;4989454;28;20033;-45
2022/04/06 12:01:03;;;;;;;15.50;8.45;;;;;;;11.73;nan;99897.69;4987532;28;20030;-45